createdAt,value
2022-08-21T00:00:20.685Z,8.88
2022-08-21T00:02:48.875Z,8.45
2022-08-21T00:05:12.863Z,8.05
2022-08-21T00:07:37.075Z,8.48
2022-08-21T00:10:01.437Z,8.98
2022-08-21T00:12:26.600Z,7.78
2022-08-21T00:14:57.056Z,8.80
2022-08-21T00:17:23.606Z,9.25
2022-08-21T00:19:47.564Z,9.85
2022-08-21T00:22:12.085Z,9.48
2022-08-21T00:24:36.298Z,9.02
2022-08-21T00:27:00.535Z,9.05
2022-08-21T00:29:24.576Z,8.75
2022-08-21T00:31:50.164Z,9.18
2022-08-21T00:34:15.374Z,9.02
2022-08-21T00:36:39.698Z,9.45
2022-08-21T00:39:04.853Z,9.80
2022-08-21T00:41:37.302Z,9.98
2022-08-21T00:44:02.392Z,8.95
2022-08-21T00:46:28.399Z,9.27
2022-08-21T00:48:54.033Z,9.57
2022-08-21T00:51:27.606Z,9.77
2022-08-21T00:53:55.654Z,9.45
2022-08-21T00:56:22.777Z,10.93
2022-08-21T00:58:47.954Z,11.23
2022-08-21T01:01:17.895Z,11.20
2022-08-21T01:03:45.418Z,12.13
2022-08-21T01:06:11.015Z,12.02
2022-08-21T01:08:36.271Z,12.57
2022-08-21T01:11:03.906Z,12.50
2022-08-21T01:13:31.616Z,11.88
2022-08-21T01:16:01.573Z,12.30
2022-08-21T01:18:25.975Z,12.63
2022-08-21T01:21:16.806Z,13.10
2022-08-21T01:23:44.204Z,12.68
2022-08-21T01:26:09.659Z,12.75
2022-08-21T01:28:39.034Z,12.30
2022-08-21T01:31:05.032Z,12.90
2022-08-21T01:33:29.262Z,12.57
2022-08-21T01:35:53.637Z,11.52
2022-08-21T01:38:19.400Z,11.82
2022-08-21T01:40:43.650Z,11.43
2022-08-21T01:43:08.101Z,11.70
2022-08-21T01:45:32.768Z,11.43
2022-08-21T01:47:56.822Z,11.27
2022-08-21T01:50:22.317Z,10.73
2022-08-21T01:52:46.482Z,10.85
2022-08-21T01:55:13.798Z,10.45
2022-08-21T01:57:37.964Z,11.63
2022-08-21T02:00:02.325Z,11.93
2022-08-21T02:02:35.958Z,11.40
2022-08-21T02:05:00.576Z,11.63
2022-08-21T02:07:24.883Z,11.73
2022-08-21T02:09:48.856Z,13.70
2022-08-21T02:12:14.639Z,14.82
2022-08-21T02:14:39.068Z,13.80
2022-08-21T02:17:05.441Z,13.88
2022-08-21T02:19:39.432Z,13.32
2022-08-21T02:22:06.053Z,14.50
2022-08-21T02:24:30.006Z,13.35
2022-08-21T02:26:53.991Z,13.60
2022-08-21T02:29:20.121Z,13.77
2022-08-21T02:31:44.051Z,12.38
2022-08-21T02:34:08.078Z,14.20
2022-08-21T02:36:33.038Z,15.38
2022-08-21T02:38:58.177Z,16.35
2022-08-21T02:41:23.381Z,16.13
2022-08-21T02:43:47.560Z,14.90
2022-08-21T02:46:14.721Z,16.15
2022-08-21T02:48:39.232Z,19.10
2022-08-21T02:51:06.092Z,20.42
2022-08-21T02:53:31.281Z,19.65
2022-08-21T02:55:56.135Z,20.60
2022-08-21T02:58:32.308Z,20.95
2022-08-21T03:00:56.712Z,19.98
2022-08-21T03:03:22.322Z,20.40
2022-08-21T03:05:46.910Z,19.13
2022-08-21T03:08:13.022Z,19.08
2022-08-21T03:10:37.706Z,18.23
2022-08-21T03:13:03.484Z,17.65
2022-08-21T03:15:27.493Z,15.90
2022-08-21T03:17:52.802Z,17.23
2022-08-21T03:20:24.833Z,17.13
2022-08-21T03:22:53.187Z,15.60
2022-08-21T03:25:17.404Z,17.05
2022-08-21T03:27:44.696Z,15.43
2022-08-21T03:30:10.731Z,15.23
2022-08-21T03:32:35.438Z,17.00
2022-08-21T03:35:00.434Z,15.63
2022-08-21T03:37:26.744Z,16.63
2022-08-21T03:39:51.003Z,16.27
2022-08-21T03:42:15.055Z,16.80
2022-08-21T03:44:40.682Z,15.38
2022-08-21T03:47:05.275Z,16.88
2022-08-21T03:49:29.570Z,16.63
2022-08-21T03:51:59.394Z,16.52
2022-08-21T03:54:26.057Z,15.68
2022-08-21T03:56:53.334Z,17.40
2022-08-21T03:59:17.383Z,16.13
2022-08-21T04:01:42.192Z,15.88
2022-08-21T04:04:06.316Z,16.08
2022-08-21T04:06:37.203Z,14.48
2022-08-21T04:09:02.001Z,14.07
2022-08-21T04:11:27.292Z,13.02
2022-08-21T04:13:51.466Z,12.43
2022-08-21T04:16:16.622Z,12.82
2022-08-21T04:18:40.815Z,13.75
2022-08-21T04:21:05.817Z,12.63
2022-08-21T04:23:35.285Z,13.45
2022-08-21T04:25:59.686Z,13.13
2022-08-21T04:28:28.833Z,13.82
2022-08-21T04:30:54.728Z,12.93
2022-08-21T04:33:18.673Z,12.98
2022-08-21T04:35:43.201Z,13.55
2022-08-21T04:38:07.636Z,12.68
2022-08-21T04:40:32.181Z,15.02
2022-08-21T04:43:01.012Z,14.75
2022-08-21T04:45:31.314Z,14.88
2022-08-21T04:47:57.545Z,14.10
2022-08-21T04:50:22.542Z,14.32
2022-08-21T04:53:03.147Z,12.73
2022-08-21T04:55:29.060Z,12.45
2022-08-21T04:57:54.647Z,15.45
2022-08-21T05:00:20.179Z,16.02
2022-08-21T05:02:46.784Z,15.45
2022-08-21T05:05:11.108Z,14.68
2022-08-21T05:07:42.184Z,13.93
2022-08-21T05:10:09.448Z,13.45
2022-08-21T05:12:35.090Z,15.68
2022-08-21T05:15:00.992Z,15.73
2022-08-21T05:17:26.906Z,17.30
2022-08-21T05:19:52.220Z,16.20
2022-08-21T05:22:22.030Z,17.83
2022-08-21T05:24:46.071Z,15.70
2022-08-21T05:27:10.055Z,17.02
2022-08-21T05:29:34.286Z,17.35
2022-08-21T05:31:58.616Z,16.08
2022-08-21T05:34:25.703Z,16.38
2022-08-21T05:36:51.565Z,14.95
2022-08-21T05:39:16.790Z,14.10
2022-08-21T05:41:40.860Z,13.30
2022-08-21T05:44:10.045Z,12.45
2022-08-21T05:46:34.692Z,11.73
2022-08-21T05:48:58.941Z,10.40
2022-08-21T05:51:23.069Z,10.32
2022-08-21T05:53:48.846Z,8.45
2022-08-21T05:56:14.104Z,7.82
2022-08-21T05:58:38.388Z,7.55
2022-08-21T06:01:04.035Z,6.75
2022-08-21T06:03:31.858Z,6.95
2022-08-21T06:05:57.674Z,6.65
2022-08-21T06:08:23.221Z,6.82
2022-08-21T06:10:50.166Z,6.68
2022-08-21T06:13:14.847Z,6.75
2022-08-21T06:15:39.152Z,7.20
2022-08-21T06:18:03.200Z,6.78
2022-08-21T06:20:27.804Z,5.82
2022-08-21T06:22:51.833Z,7.00
2022-08-21T06:25:15.986Z,6.80
2022-08-21T06:27:41.772Z,6.90
2022-08-21T06:30:07.218Z,6.78
2022-08-21T06:32:32.107Z,5.75
2022-08-21T06:34:56.420Z,6.25
2022-08-21T06:37:20.423Z,6.38
2022-08-21T06:39:45.414Z,6.53
2022-08-21T06:42:16.167Z,5.78
2022-08-21T06:44:43.231Z,6.22
2022-08-21T06:47:07.295Z,5.70
2022-08-21T06:49:31.339Z,5.53
2022-08-21T06:51:57.310Z,5.65
2022-08-21T06:54:22.830Z,5.30
2022-08-21T06:56:47.727Z,5.10
2022-08-21T06:59:11.683Z,6.22
2022-08-21T07:01:37.583Z,5.80
2022-08-21T07:04:01.821Z,5.28
2022-08-21T07:06:26.096Z,5.13
2022-08-21T07:08:50.210Z,5.43
2022-08-21T07:11:19.443Z,5.97
2022-08-21T07:13:43.525Z,5.60
2022-08-21T07:16:08.092Z,5.10
2022-08-21T07:18:33.540Z,5.15
2022-08-21T07:20:57.990Z,4.95
2022-08-21T07:23:26.905Z,5.57
2022-08-21T07:25:51.150Z,5.07
2022-08-21T07:28:15.152Z,5.30
2022-08-21T07:30:39.282Z,5.38
2022-08-21T07:33:03.383Z,5.63
2022-08-21T07:35:29.348Z,5.30
2022-08-21T07:37:53.302Z,4.55
2022-08-21T07:40:18.271Z,5.20
2022-08-21T07:42:43.420Z,5.13
2022-08-21T07:45:08.750Z,5.10
2022-08-21T07:47:41.549Z,4.95
2022-08-21T07:50:08.425Z,5.15
2022-08-21T07:52:34.772Z,29.98
2022-08-21T07:55:01.654Z,66.07
2022-08-21T07:57:28.340Z,8.77
2022-08-21T07:59:52.339Z,7.85
2022-08-21T08:02:25.253Z,10.07
2022-08-21T08:04:51.155Z,5.43
2022-08-21T08:07:15.427Z,6.55
2022-08-21T08:09:40.978Z,5.85
2022-08-21T08:12:06.669Z,5.80
2022-08-21T08:14:31.650Z,5.93
2022-08-21T08:16:57.725Z,4.55
2022-08-21T08:19:21.730Z,5.90
2022-08-21T08:21:45.696Z,6.00
2022-08-21T08:24:19.349Z,6.60
2022-08-21T08:26:45.286Z,6.18
2022-08-21T08:29:17.772Z,6.47
2022-08-21T08:31:42.006Z,6.93
2022-08-21T08:34:06.060Z,6.03
2022-08-21T08:36:35.996Z,6.20
2022-08-21T08:39:00.163Z,5.70
2022-08-21T08:41:30.709Z,5.88
2022-08-21T08:44:03.844Z,5.78
2022-08-21T08:46:35.678Z,5.07
2022-08-21T08:49:05.311Z,5.20
2022-08-21T08:51:36.891Z,4.97
2022-08-21T08:54:07.166Z,4.85
2022-08-21T08:56:34.718Z,4.85
2022-08-21T08:59:04.961Z,4.50
2022-08-21T09:01:29.267Z,4.15
2022-08-21T09:03:53.549Z,4.75
2022-08-21T09:06:30.716Z,4.78
2022-08-21T09:09:12.501Z,4.85
2022-08-21T09:11:43.811Z,4.93
2022-08-21T09:14:18.009Z,4.72
2022-08-21T09:16:53.166Z,5.38
2022-08-21T09:19:30.098Z,4.82
2022-08-21T09:22:04.682Z,4.80
2022-08-21T09:24:34.415Z,4.45
2022-08-21T09:27:07.186Z,4.97
2022-08-21T09:29:36.890Z,5.03
2022-08-21T09:32:00.844Z,5.03
2022-08-21T09:34:30.074Z,4.93
2022-08-21T09:36:58.232Z,5.20
2022-08-21T09:39:27.182Z,5.15
2022-08-21T09:41:58.374Z,4.97
2022-08-21T09:44:28.699Z,4.95
2022-08-21T09:46:54.725Z,5.10
2022-08-21T09:49:30.011Z,4.70
2022-08-21T09:51:56.240Z,5.10
2022-08-21T09:54:22.659Z,4.80
2022-08-21T09:57:14.620Z,5.00
2022-08-21T09:59:39.760Z,5.05
2022-08-21T10:02:24.420Z,5.32
2022-08-21T10:04:52.980Z,4.38
2022-08-21T10:07:17.158Z,5.28
2022-08-21T10:09:41.844Z,4.45
2022-08-21T10:12:18.855Z,4.40
2022-08-21T10:14:54.932Z,4.30
2022-08-21T10:17:29.740Z,4.50
2022-08-21T10:20:00.420Z,4.25
2022-08-21T10:22:34.969Z,4.05
2022-08-21T10:25:08.788Z,4.72
2022-08-21T10:27:47.698Z,4.10
2022-08-21T10:30:15.838Z,4.90
2022-08-21T10:33:02.104Z,5.03
2022-08-21T10:35:33.271Z,5.43
2022-08-21T10:38:33.598Z,5.78
2022-08-21T10:41:09.457Z,5.22
2022-08-21T10:43:42.273Z,5.80
2022-08-21T10:46:19.999Z,5.35
2022-08-21T10:48:52.130Z,5.45
2022-08-21T10:51:29.113Z,5.43
2022-08-21T10:54:02.341Z,5.00
2022-08-21T10:56:29.193Z,5.28
2022-08-21T10:59:04.620Z,5.60
2022-08-21T11:01:33.769Z,5.68
2022-08-21T11:04:11.746Z,5.25
2022-08-21T11:06:40.067Z,6.45
2022-08-21T11:09:12.149Z,5.88
2022-08-21T11:11:43.922Z,5.88
2022-08-21T11:14:20.563Z,5.97
2022-08-21T11:16:48.881Z,6.68
2022-08-21T11:19:21.458Z,7.15
2022-08-21T11:21:50.832Z,6.43
2022-08-21T11:24:27.982Z,7.05
2022-08-21T11:26:57.186Z,7.68
2022-08-21T11:29:26.960Z,7.60
2022-08-21T11:32:03.319Z,6.60
2022-08-21T11:34:43.957Z,6.90
2022-08-21T11:37:17.000Z,6.53
2022-08-21T11:39:48.537Z,6.90
2022-08-21T11:42:26.556Z,6.78
2022-08-21T11:44:58.437Z,7.25
2022-08-21T11:47:34.039Z,6.47
2022-08-21T11:50:34.311Z,6.85
2022-08-21T11:53:03.800Z,6.90
2022-08-21T11:55:34.616Z,6.97
2022-08-21T11:58:04.581Z,6.60
2022-08-21T12:00:33.083Z,6.70
2022-08-21T12:03:00.466Z,6.47
2022-08-21T12:05:36.178Z,6.38
2022-08-21T12:08:08.287Z,6.55
2022-08-21T12:10:35.822Z,6.13
2022-08-21T12:13:10.417Z,6.70
2022-08-21T12:15:34.664Z,6.32
2022-08-21T12:18:01.686Z,6.32
2022-08-21T12:20:50.850Z,7.32
2022-08-21T12:23:27.260Z,6.00
2022-08-21T12:26:05.573Z,6.28
2022-08-21T12:28:32.350Z,6.20
2022-08-21T12:30:58.176Z,5.50
2022-08-21T12:33:27.255Z,6.60
2022-08-21T12:35:54.855Z,5.35
2022-08-21T12:38:24.679Z,6.25
2022-08-21T12:40:54.450Z,6.18
2022-08-21T12:43:22.486Z,5.93
2022-08-21T12:45:50.261Z,5.90
2022-08-21T12:48:20.753Z,5.40
2022-08-21T12:50:54.349Z,5.30
2022-08-21T12:53:29.290Z,5.30
2022-08-21T12:55:53.619Z,4.82
2022-08-21T12:58:22.581Z,5.90
2022-08-21T13:00:53.312Z,5.10
2022-08-21T13:03:18.699Z,5.13
2022-08-21T13:05:43.381Z,5.70
2022-08-21T13:08:12.817Z,5.10
2022-08-21T13:10:39.987Z,5.30
2022-08-21T13:13:12.275Z,5.63
2022-08-21T13:15:41.092Z,4.97
2022-08-21T13:18:23.714Z,5.28
2022-08-21T13:20:48.404Z,5.13
2022-08-21T13:23:23.456Z,5.75
2022-08-21T13:25:47.791Z,5.47
2022-08-21T13:28:15.957Z,5.30
2022-08-21T13:30:43.238Z,5.50
2022-08-21T13:33:13.098Z,5.10
2022-08-21T13:35:49.321Z,6.10
2022-08-21T13:38:13.985Z,5.15
2022-08-21T13:40:48.281Z,5.07
2022-08-21T13:43:19.897Z,5.63
2022-08-21T13:45:47.384Z,5.65
2022-08-21T13:48:11.756Z,5.72
2022-08-21T13:50:39.166Z,5.60
2022-08-21T13:53:05.645Z,5.10
2022-08-21T13:55:38.749Z,4.95
2022-08-21T13:58:06.560Z,5.05
2022-08-21T14:00:36.279Z,4.90
2022-08-21T14:03:08.072Z,5.13
2022-08-21T14:05:35.468Z,5.18
2022-08-21T14:08:05.826Z,5.32
2022-08-21T14:10:31.459Z,5.30
2022-08-21T14:13:00.809Z,5.50
2022-08-21T14:15:29.614Z,5.90
2022-08-21T14:17:54.641Z,4.93
2022-08-21T14:20:30.755Z,5.47
2022-08-21T14:22:55.339Z,5.55
2022-08-21T14:25:31.688Z,4.82
2022-08-21T14:28:00.804Z,5.90
2022-08-21T14:30:37.789Z,5.50
2022-08-21T14:33:05.138Z,5.50
2022-08-21T14:35:29.352Z,5.63
2022-08-21T14:37:55.268Z,5.60
2022-08-21T14:40:20.462Z,5.47
2022-08-21T14:42:45.247Z,4.95
2022-08-21T14:45:15.778Z,5.45
2022-08-21T14:47:43.711Z,5.18
2022-08-21T14:50:08.918Z,5.55
2022-08-21T14:52:33.534Z,4.93
2022-08-21T14:54:58.068Z,5.43
2022-08-21T14:57:22.586Z,5.80
2022-08-21T14:59:47.051Z,5.53
2022-08-21T15:02:12.231Z,5.95
2022-08-21T15:04:38.012Z,6.72
2022-08-21T15:07:02.702Z,6.25
2022-08-21T15:09:27.290Z,6.07
2022-08-21T15:11:52.213Z,5.97
2022-08-21T15:14:21.663Z,5.55
2022-08-21T15:16:46.042Z,6.22
2022-08-21T15:19:10.168Z,7.22
2022-08-21T15:21:35.636Z,10.85
2022-08-21T15:23:59.769Z,6.60
2022-08-21T15:26:24.824Z,10.20
2022-08-21T15:28:48.808Z,7.65
2022-08-21T15:31:12.953Z,10.00
2022-08-21T15:33:37.006Z,6.93
2022-08-21T15:36:01.077Z,8.15
2022-08-21T15:38:28.289Z,7.55
2022-08-21T15:40:52.792Z,6.97
2022-08-21T15:43:30.170Z,7.43
2022-08-21T15:45:54.963Z,7.57
2022-08-21T15:48:19.054Z,6.50
2022-08-21T15:50:43.136Z,6.38
2022-08-21T15:53:07.337Z,6.07
2022-08-21T15:55:35.133Z,6.78
2022-08-21T15:58:02.812Z,7.40
2022-08-21T16:00:31.094Z,8.95
2022-08-21T16:02:58.042Z,7.78
2022-08-21T16:05:23.322Z,7.05
2022-08-21T16:07:48.755Z,8.02
2022-08-21T16:10:13.454Z,7.35
2022-08-21T16:12:44.169Z,8.10
2022-08-21T16:15:11.515Z,8.02
2022-08-21T16:17:48.830Z,7.57
2022-08-21T16:20:14.903Z,8.15
2022-08-21T16:22:44.791Z,7.43
2022-08-21T16:25:09.998Z,7.57
2022-08-21T16:27:36.461Z,7.70
2022-08-21T16:30:05.439Z,7.38
2022-08-21T16:32:30.338Z,8.10
2022-08-21T16:34:54.743Z,7.20
2022-08-21T16:37:24.411Z,6.90
2022-08-21T16:39:48.894Z,7.68
2022-08-21T16:42:25.989Z,7.63
2022-08-21T16:44:50.166Z,7.20
2022-08-21T16:47:26.861Z,6.80
2022-08-21T16:49:52.208Z,6.82
2022-08-21T16:52:16.662Z,6.88
2022-08-21T16:54:43.455Z,7.38
2022-08-21T16:57:08.754Z,6.95
2022-08-21T16:59:33.228Z,5.85
2022-08-21T17:01:57.769Z,7.45
2022-08-21T17:04:25.713Z,7.60
2022-08-21T17:06:50.311Z,7.22
2022-08-21T17:09:14.561Z,8.77
2022-08-21T17:11:43.024Z,7.55
2022-08-21T17:14:09.498Z,8.48
2022-08-21T17:16:34.276Z,6.88
2022-08-21T17:18:58.482Z,6.90
2022-08-21T17:21:23.967Z,6.22
2022-08-21T17:23:49.110Z,6.55
2022-08-21T17:26:14.363Z,6.70
2022-08-21T17:28:39.513Z,6.88
2022-08-21T17:31:06.976Z,6.53
2022-08-21T17:33:42.876Z,6.57
2022-08-21T17:36:07.895Z,7.32
2022-08-21T17:38:33.466Z,6.57
2022-08-21T17:40:58.419Z,7.53
2022-08-21T17:43:22.612Z,6.82
2022-08-21T17:45:47.228Z,7.32
2022-08-21T17:48:11.594Z,7.32
2022-08-21T17:50:37.878Z,6.50
2022-08-21T17:53:01.880Z,7.28
2022-08-21T17:55:28.303Z,6.25
2022-08-21T17:57:54.031Z,7.07
2022-08-21T18:00:20.358Z,6.28
2022-08-21T18:02:47.412Z,7.55
2022-08-21T18:05:13.270Z,6.78
2022-08-21T18:07:37.835Z,6.28
2022-08-21T18:10:02.502Z,6.35
2022-08-21T18:12:28.475Z,7.03
2022-08-21T18:14:52.484Z,6.45
2022-08-21T18:17:21.642Z,6.28
2022-08-21T18:19:49.137Z,6.32
2022-08-21T18:22:13.572Z,7.03
2022-08-21T18:24:38.139Z,6.43
2022-08-21T18:27:03.554Z,6.90
2022-08-21T18:29:29.705Z,6.65
2022-08-21T18:31:54.068Z,8.07
2022-08-21T18:34:25.665Z,7.20
2022-08-21T18:36:50.148Z,7.75
2022-08-21T18:39:35.548Z,6.43
2022-08-21T18:41:59.429Z,10.75
2022-08-21T18:44:27.398Z,8.35
2022-08-21T18:46:57.533Z,7.10
2022-08-21T18:49:21.505Z,7.20
2022-08-21T18:51:46.627Z,7.70
2022-08-21T18:56:55.385Z,7.75
2022-08-21T18:59:20.695Z,8.50
2022-08-21T19:01:45.002Z,7.63
2022-08-21T19:04:29.918Z,7.78
2022-08-21T19:06:58.576Z,7.88
2022-08-21T19:09:22.732Z,7.90
2022-08-21T19:11:47.241Z,7.30
2022-08-21T19:14:17.363Z,7.38
2022-08-21T19:16:47.405Z,6.90
2022-08-21T19:19:13.463Z,7.40
2022-08-21T19:21:38.735Z,7.40
2022-08-21T19:24:17.805Z,7.85
2022-08-21T19:26:42.476Z,8.13
2022-08-21T19:29:09.995Z,7.03
2022-08-21T19:31:36.228Z,8.20
2022-08-21T19:34:03.438Z,7.75
2022-08-21T19:36:29.189Z,7.43
2022-08-21T19:38:53.561Z,7.43
2022-08-21T19:41:18.674Z,7.75
2022-08-21T19:43:47.598Z,7.32
2022-08-21T19:46:12.780Z,8.07
2022-08-21T19:48:38.427Z,7.38
2022-08-21T19:51:05.050Z,8.07
2022-08-21T19:53:30.799Z,7.63
2022-08-21T19:55:55.156Z,7.35
2022-08-21T19:58:27.865Z,7.32
2022-08-21T20:00:51.929Z,7.30
2022-08-21T20:03:15.907Z,8.23
2022-08-21T20:05:41.100Z,8.43
2022-08-21T20:08:19.986Z,8.30
2022-08-21T20:10:45.815Z,8.23
2022-08-21T20:13:13.880Z,8.35
2022-08-21T20:15:37.946Z,8.85
2022-08-21T20:18:02.124Z,7.72
2022-08-21T20:20:26.063Z,7.95
2022-08-21T20:22:55.231Z,8.23
2022-08-21T20:25:21.375Z,7.97
2022-08-21T20:27:46.942Z,9.05
2022-08-21T20:30:12.894Z,7.90
2022-08-21T20:32:38.078Z,9.02
2022-08-21T20:35:02.206Z,9.02
2022-08-21T20:37:36.846Z,8.10
2022-08-21T20:40:01.734Z,8.77
2022-08-21T20:42:26.706Z,8.18
2022-08-21T20:44:54.339Z,9.52
2022-08-21T20:47:18.738Z,8.93
2022-08-21T20:49:47.030Z,8.13
2022-08-21T20:52:11.400Z,9.02
2022-08-21T20:54:45.983Z,8.95
2022-08-21T20:57:16.186Z,8.73
2022-08-21T20:59:48.269Z,8.20
2022-08-21T21:02:26.665Z,7.88
2022-08-21T21:04:55.987Z,8.55
2022-08-21T21:07:26.249Z,11.52
2022-08-21T21:09:53.308Z,9.93
2022-08-21T21:12:27.685Z,10.07
2022-08-21T21:14:56.803Z,8.75
2022-08-21T21:17:29.411Z,8.20
2022-08-21T21:20:00.047Z,7.88
2022-08-21T21:22:28.314Z,8.52
2022-08-21T21:24:59.468Z,8.80
2022-08-21T21:27:35.923Z,8.70
2022-08-21T21:30:04.321Z,9.40
2022-08-21T21:32:30.601Z,8.55
2022-08-21T21:34:55.696Z,8.32
2022-08-21T21:37:25.988Z,9.00
2022-08-21T21:39:56.707Z,9.43
2022-08-21T21:42:30.342Z,8.60
2022-08-21T21:45:11.155Z,8.93
2022-08-21T21:47:47.434Z,9.10
2022-08-21T21:50:29.698Z,8.70
2022-08-21T21:53:04.773Z,8.55
2022-08-21T21:55:49.935Z,8.65
2022-08-21T21:58:38.524Z,8.95
2022-08-21T22:01:09.390Z,9.20
2022-08-21T22:03:44.748Z,8.93
2022-08-21T22:06:14.225Z,8.35
2022-08-21T22:08:48.875Z,8.23
2022-08-21T22:11:24.442Z,8.88
2022-08-21T22:13:59.887Z,9.32
2022-08-21T22:16:25.151Z,9.75
2022-08-21T22:18:55.271Z,9.70
2022-08-21T22:21:26.213Z,9.75
2022-08-21T22:23:55.085Z,9.90
2022-08-21T22:26:22.188Z,10.02
2022-08-21T22:28:51.939Z,10.93
2022-08-21T22:31:21.801Z,10.15
2022-08-21T22:34:17.681Z,8.38
2022-08-21T22:36:46.236Z,7.82
2022-08-21T22:39:18.260Z,7.68
2022-08-21T22:41:47.378Z,9.25
2022-08-21T22:44:22.497Z,8.32
2022-08-21T22:46:50.579Z,8.38
2022-08-21T22:49:29.456Z,8.20
2022-08-21T22:52:06.993Z,9.00
2022-08-21T22:54:38.631Z,8.38
2022-08-21T22:57:05.693Z,9.70
2022-08-21T22:59:32.283Z,9.32
2022-08-21T23:02:03.801Z,9.23
2022-08-21T23:04:30.761Z,9.43
2022-08-21T23:07:06.091Z,9.00
2022-08-21T23:09:33.943Z,9.85
2022-08-21T23:12:01.041Z,10.13
2022-08-21T23:14:26.520Z,9.27
2022-08-21T23:16:56.410Z,9.13
2022-08-21T23:19:34.454Z,9.38
2022-08-21T23:22:17.089Z,9.57
2022-08-21T23:25:01.217Z,9.50
2022-08-21T23:27:39.620Z,9.70
2022-08-21T23:30:14.887Z,9.45
2022-08-21T23:33:04.348Z,9.13
2022-08-21T23:35:57.914Z,9.02
2022-08-21T23:38:34.967Z,9.85
2022-08-21T23:44:08.767Z,9.70
2022-08-21T23:46:47.296Z,8.85
2022-08-21T23:49:25.499Z,9.65
2022-08-21T23:52:00.198Z,9.30
2022-08-21T23:54:35.745Z,9.07
2022-08-21T23:57:09.554Z,9.60
2022-08-21T23:59:44.695Z,10.02
